sensor_id;sensor_type;location;lat;lon;timestamp;P1;durP1;ratioP1;P2;durP2;ratioP2
74959;SDS011;63518;49.572;1.106;2023-08-31T00:01:02;4.70;;;0.95;;
74959;SDS011;63518;49.572;1.106;2023-08-31T00:03:32;9.48;;;1.10;;
74959;SDS011;63518;49.572;1.106;2023-08-31T00:06:01;5.25;;;1.35;;
74959;SDS011;63518;49.572;1.106;2023-08-31T00:08:30;7.00;;;1.13;;
74959;SDS011;63518;49.572;1.106;2023-08-31T00:10:57;3.85;;;0.80;;
74959;SDS011;63518;49.572;1.106;2023-08-31T00:13:27;4.68;;;1.10;;
74959;SDS011;63518;49.572;1.106;2023-08-31T00:15:56;4.70;;;1.50;;
74959;SDS011;63518;49.572;1.106;2023-08-31T00:18:25;4.78;;;1.00;;
74959;SDS011;63518;49.572;1.106;2023-08-31T00:20:52;3.95;;;1.10;;
74959;SDS011;63518;49.572;1.106;2023-08-31T00:23:19;4.25;;;1.20;;
74959;SDS011;63518;49.572;1.106;2023-08-31T00:25:47;6.88;;;1.45;;
74959;SDS011;63518;49.572;1.106;2023-08-31T00:28:15;5.78;;;1.98;;
74959;SDS011;63518;49.572;1.106;2023-08-31T00:30:45;4.03;;;0.93;;
74959;SDS011;63518;49.572;1.106;2023-08-31T00:33:13;5.05;;;1.10;;
74959;SDS011;63518;49.572;1.106;2023-08-31T00:35:41;6.40;;;1.15;;
74959;SDS011;63518;49.572;1.106;2023-08-31T00:38:12;5.15;;;1.33;;
74959;SDS011;63518;49.572;1.106;2023-08-31T00:40:41;5.35;;;1.38;;
74959;SDS011;63518;49.572;1.106;2023-08-31T00:43:12;4.93;;;1.17;;
74959;SDS011;63518;49.572;1.106;2023-08-31T00:45:44;5.97;;;1.40;;
74959;SDS011;63518;49.572;1.106;2023-08-31T00:48:13;3.85;;;1.17;;
74959;SDS011;63518;49.572;1.106;2023-08-31T00:50:44;6.05;;;1.02;;
74959;SDS011;63518;49.572;1.106;2023-08-31T00:53:12;5.32;;;1.27;;
74959;SDS011;63518;49.572;1.106;2023-08-31T00:55:40;5.80;;;1.38;;
74959;SDS011;63518;49.572;1.106;2023-08-31T00:58:07;5.45;;;1.33;;
74959;SDS011;63518;49.572;1.106;2023-08-31T01:11:31;4.28;;;1.05;;
74959;SDS011;63518;49.572;1.106;2023-08-31T01:14:15;4.93;;;1.35;;
74959;SDS011;63518;49.572;1.106;2023-08-31T01:16:47;6.78;;;1.35;;
74959;SDS011;63518;49.572;1.106;2023-08-31T01:19:39;4.38;;;0.98;;
74959;SDS011;63518;49.572;1.106;2023-08-31T01:25:07;3.67;;;1.02;;
74959;SDS011;63518;49.572;1.106;2023-08-31T01:27:36;5.32;;;1.13;;
74959;SDS011;63518;49.572;1.106;2023-08-31T01:30:04;6.03;;;1.20;;
74959;SDS011;63518;49.572;1.106;2023-08-31T01:32:32;4.18;;;1.30;;
74959;SDS011;63518;49.572;1.106;2023-08-31T01:35:03;6.45;;;1.40;;
74959;SDS011;63518;49.572;1.106;2023-08-31T01:37:50;5.18;;;1.42;;
74959;SDS011;63518;49.572;1.106;2023-08-31T01:40:24;4.63;;;1.30;;
74959;SDS011;63518;49.572;1.106;2023-08-31T01:43:00;5.80;;;1.15;;
74959;SDS011;63518;49.572;1.106;2023-08-31T01:45:29;4.78;;;1.05;;
74959;SDS011;63518;49.572;1.106;2023-08-31T01:47:58;6.10;;;1.23;;
74959;SDS011;63518;49.572;1.106;2023-08-31T01:50:25;5.38;;;1.60;;
74959;SDS011;63518;49.572;1.106;2023-08-31T01:52:52;6.65;;;1.55;;
74959;SDS011;63518;49.572;1.106;2023-08-31T01:55:23;11.10;;;1.50;;
74959;SDS011;63518;49.572;1.106;2023-08-31T01:57:50;7.30;;;1.20;;
74959;SDS011;63518;49.572;1.106;2023-08-31T02:00:18;5.78;;;1.02;;
74959;SDS011;63518;49.572;1.106;2023-08-31T02:02:45;4.50;;;1.23;;
74959;SDS011;63518;49.572;1.106;2023-08-31T02:05:12;4.05;;;1.00;;
74959;SDS011;63518;49.572;1.106;2023-08-31T02:07:39;8.93;;;1.35;;
74959;SDS011;63518;49.572;1.106;2023-08-31T02:10:07;6.38;;;1.40;;
74959;SDS011;63518;49.572;1.106;2023-08-31T02:12:34;5.70;;;1.17;;
74959;SDS011;63518;49.572;1.106;2023-08-31T02:15:04;4.13;;;1.33;;
74959;SDS011;63518;49.572;1.106;2023-08-31T02:17:33;4.15;;;0.93;;
74959;SDS011;63518;49.572;1.106;2023-08-31T02:20:02;5.05;;;1.20;;
74959;SDS011;63518;49.572;1.106;2023-08-31T02:22:31;5.47;;;1.40;;
74959;SDS011;63518;49.572;1.106;2023-08-31T02:25:00;6.30;;;1.15;;
74959;SDS011;63518;49.572;1.106;2023-08-31T02:27:27;5.20;;;1.15;;
74959;SDS011;63518;49.572;1.106;2023-08-31T02:29:54;4.10;;;1.17;;
74959;SDS011;63518;49.572;1.106;2023-08-31T02:32:22;4.47;;;1.30;;
74959;SDS011;63518;49.572;1.106;2023-08-31T02:34:49;6.10;;;1.50;;
74959;SDS011;63518;49.572;1.106;2023-08-31T02:37:16;4.43;;;0.95;;
74959;SDS011;63518;49.572;1.106;2023-08-31T02:39:43;4.20;;;1.10;;
74959;SDS011;63518;49.572;1.106;2023-08-31T02:42:10;4.30;;;1.08;;
74959;SDS011;63518;49.572;1.106;2023-08-31T02:44:37;3.42;;;1.10;;
74959;SDS011;63518;49.572;1.106;2023-08-31T02:47:04;5.78;;;1.42;;
74959;SDS011;63518;49.572;1.106;2023-08-31T02:49:31;4.43;;;1.20;;
74959;SDS011;63518;49.572;1.106;2023-08-31T02:51:58;5.88;;;1.10;;
74959;SDS011;63518;49.572;1.106;2023-08-31T02:54:25;6.97;;;1.08;;
74959;SDS011;63518;49.572;1.106;2023-08-31T02:56:52;5.03;;;1.20;;
74959;SDS011;63518;49.572;1.106;2023-08-31T02:59:19;4.32;;;1.10;;
74959;SDS011;63518;49.572;1.106;2023-08-31T03:01:46;5.50;;;1.10;;
74959;SDS011;63518;49.572;1.106;2023-08-31T03:04:14;6.10;;;1.60;;
74959;SDS011;63518;49.572;1.106;2023-08-31T03:06:41;5.38;;;1.00;;
74959;SDS011;63518;49.572;1.106;2023-08-31T03:09:08;6.43;;;1.38;;
74959;SDS011;63518;49.572;1.106;2023-08-31T03:11:36;9.55;;;1.10;;
74959;SDS011;63518;49.572;1.106;2023-08-31T03:14:03;5.75;;;1.02;;
74959;SDS011;63518;49.572;1.106;2023-08-31T03:16:30;4.00;;;1.10;;
74959;SDS011;63518;49.572;1.106;2023-08-31T03:18:57;5.15;;;1.30;;
74959;SDS011;63518;49.572;1.106;2023-08-31T03:21:24;4.68;;;1.00;;
74959;SDS011;63518;49.572;1.106;2023-08-31T03:23:51;5.57;;;0.95;;
74959;SDS011;63518;49.572;1.106;2023-08-31T03:26:18;5.47;;;1.10;;
74959;SDS011;63518;49.572;1.106;2023-08-31T03:28:45;3.97;;;0.80;;
74959;SDS011;63518;49.572;1.106;2023-08-31T03:31:12;5.32;;;1.10;;
74959;SDS011;63518;49.572;1.106;2023-08-31T03:33:39;5.55;;;1.13;;
74959;SDS011;63518;49.572;1.106;2023-08-31T03:36:06;6.10;;;1.27;;
74959;SDS011;63518;49.572;1.106;2023-08-31T03:38:33;4.53;;;1.00;;
74959;SDS011;63518;49.572;1.106;2023-08-31T03:41:04;3.88;;;0.98;;
74959;SDS011;63518;49.572;1.106;2023-08-31T03:43:31;7.03;;;1.20;;
74959;SDS011;63518;49.572;1.106;2023-08-31T03:45:59;5.75;;;1.13;;
74959;SDS011;63518;49.572;1.106;2023-08-31T03:48:26;5.50;;;1.08;;
74959;SDS011;63518;49.572;1.106;2023-08-31T03:50:54;3.72;;;1.15;;
74959;SDS011;63518;49.572;1.106;2023-08-31T03:53:22;4.72;;;1.15;;
74959;SDS011;63518;49.572;1.106;2023-08-31T03:55:49;5.07;;;0.82;;
74959;SDS011;63518;49.572;1.106;2023-08-31T03:58:17;8.75;;;1.30;;
74959;SDS011;63518;49.572;1.106;2023-08-31T04:00:44;4.25;;;1.23;;
74959;SDS011;63518;49.572;1.106;2023-08-31T04:03:11;3.50;;;0.80;;
74959;SDS011;63518;49.572;1.106;2023-08-31T04:05:39;4.32;;;1.23;;
74959;SDS011;63518;49.572;1.106;2023-08-31T04:08:07;4.55;;;1.13;;
74959;SDS011;63518;49.572;1.106;2023-08-31T04:10:34;6.20;;;1.23;;
74959;SDS011;63518;49.572;1.106;2023-08-31T04:13:01;8.50;;;1.42;;
74959;SDS011;63518;49.572;1.106;2023-08-31T04:15:28;2.90;;;0.85;;
74959;SDS011;63518;49.572;1.106;2023-08-31T04:17:57;4.50;;;1.02;;
74959;SDS011;63518;49.572;1.106;2023-08-31T04:20:24;7.18;;;1.38;;
74959;SDS011;63518;49.572;1.106;2023-08-31T04:22:51;4.90;;;1.00;;
74959;SDS011;63518;49.572;1.106;2023-08-31T04:25:18;6.20;;;0.95;;
74959;SDS011;63518;49.572;1.106;2023-08-31T04:27:45;4.57;;;1.17;;
74959;SDS011;63518;49.572;1.106;2023-08-31T04:30:12;4.90;;;1.15;;
74959;SDS011;63518;49.572;1.106;2023-08-31T04:32:39;9.10;;;1.42;;
74959;SDS011;63518;49.572;1.106;2023-08-31T04:35:06;6.78;;;1.00;;
74959;SDS011;63518;49.572;1.106;2023-08-31T04:37:34;5.05;;;1.10;;
74959;SDS011;63518;49.572;1.106;2023-08-31T04:40:01;5.07;;;1.23;;
74959;SDS011;63518;49.572;1.106;2023-08-31T04:42:30;6.25;;;1.20;;
74959;SDS011;63518;49.572;1.106;2023-08-31T04:44:58;4.75;;;1.35;;
74959;SDS011;63518;49.572;1.106;2023-08-31T04:47:25;7.57;;;1.58;;
74959;SDS011;63518;49.572;1.106;2023-08-31T04:49:52;4.80;;;1.35;;
74959;SDS011;63518;49.572;1.106;2023-08-31T04:52:18;7.53;;;1.38;;
74959;SDS011;63518;49.572;1.106;2023-08-31T04:54:45;4.28;;;1.05;;
74959;SDS011;63518;49.572;1.106;2023-08-31T04:57:12;5.63;;;1.10;;
74959;SDS011;63518;49.572;1.106;2023-08-31T04:59:39;4.80;;;1.10;;
74959;SDS011;63518;49.572;1.106;2023-08-31T05:02:06;6.07;;;1.17;;
74959;SDS011;63518;49.572;1.106;2023-08-31T05:04:33;6.90;;;1.33;;
74959;SDS011;63518;49.572;1.106;2023-08-31T05:07:00;6.28;;;1.10;;
74959;SDS011;63518;49.572;1.106;2023-08-31T05:09:28;5.35;;;1.20;;
74959;SDS011;63518;49.572;1.106;2023-08-31T05:11:58;5.05;;;1.20;;
74959;SDS011;63518;49.572;1.106;2023-08-31T05:14:26;4.57;;;0.95;;
74959;SDS011;63518;49.572;1.106;2023-08-31T05:16:53;5.00;;;1.05;;
74959;SDS011;63518;49.572;1.106;2023-08-31T05:19:20;5.95;;;1.13;;
74959;SDS011;63518;49.572;1.106;2023-08-31T05:21:47;4.68;;;1.00;;
74959;SDS011;63518;49.572;1.106;2023-08-31T05:24:14;7.05;;;1.63;;
74959;SDS011;63518;49.572;1.106;2023-08-31T05:26:41;5.00;;;1.35;;
74959;SDS011;63518;49.572;1.106;2023-08-31T05:29:08;4.10;;;1.40;;
74959;SDS011;63518;49.572;1.106;2023-08-31T05:31:35;7.72;;;1.05;;
74959;SDS011;63518;49.572;1.106;2023-08-31T05:34:02;4.57;;;0.88;;
74959;SDS011;63518;49.572;1.106;2023-08-31T05:36:29;6.53;;;1.33;;
74959;SDS011;63518;49.572;1.106;2023-08-31T05:38:56;7.43;;;1.20;;
74959;SDS011;63518;49.572;1.106;2023-08-31T05:41:23;6.95;;;1.35;;
74959;SDS011;63518;49.572;1.106;2023-08-31T05:43:51;5.50;;;1.15;;
74959;SDS011;63518;49.572;1.106;2023-08-31T05:46:18;7.18;;;1.30;;
74959;SDS011;63518;49.572;1.106;2023-08-31T05:48:46;4.38;;;1.20;;
74959;SDS011;63518;49.572;1.106;2023-08-31T05:51:12;7.00;;;1.20;;
74959;SDS011;63518;49.572;1.106;2023-08-31T05:53:39;4.38;;;1.00;;
74959;SDS011;63518;49.572;1.106;2023-08-31T05:56:06;5.25;;;1.00;;
74959;SDS011;63518;49.572;1.106;2023-08-31T05:58:35;4.68;;;1.10;;
74959;SDS011;63518;49.572;1.106;2023-08-31T06:01:03;8.35;;;1.45;;
74959;SDS011;63518;49.572;1.106;2023-08-31T06:03:30;8.82;;;1.27;;
74959;SDS011;63518;49.572;1.106;2023-08-31T06:05:58;3.72;;;0.90;;
74959;SDS011;63518;49.572;1.106;2023-08-31T06:08:26;6.32;;;1.08;;
74959;SDS011;63518;49.572;1.106;2023-08-31T06:10:53;6.05;;;1.23;;
74959;SDS011;63518;49.572;1.106;2023-08-31T06:13:20;5.35;;;1.20;;
74959;SDS011;63518;49.572;1.106;2023-08-31T06:15:46;6.25;;;1.38;;
74959;SDS011;63518;49.572;1.106;2023-08-31T06:18:13;4.63;;;1.20;;
74959;SDS011;63518;49.572;1.106;2023-08-31T06:20:40;4.50;;;1.02;;
74959;SDS011;63518;49.572;1.106;2023-08-31T06:23:10;4.20;;;1.13;;
74959;SDS011;63518;49.572;1.106;2023-08-31T06:25:38;5.55;;;1.10;;
74959;SDS011;63518;49.572;1.106;2023-08-31T06:28:05;7.15;;;1.40;;
74959;SDS011;63518;49.572;1.106;2023-08-31T06:30:35;6.38;;;1.38;;
74959;SDS011;63518;49.572;1.106;2023-08-31T06:33:02;4.72;;;1.20;;
74959;SDS011;63518;49.572;1.106;2023-08-31T06:35:29;6.70;;;1.45;;
74959;SDS011;63518;49.572;1.106;2023-08-31T06:37:57;6.05;;;1.10;;
74959;SDS011;63518;49.572;1.106;2023-08-31T06:40:24;4.95;;;1.10;;
74959;SDS011;63518;49.572;1.106;2023-08-31T06:42:51;3.85;;;1.05;;
74959;SDS011;63518;49.572;1.106;2023-08-31T06:45:18;4.57;;;1.02;;
74959;SDS011;63518;49.572;1.106;2023-08-31T06:47:45;5.97;;;1.33;;
74959;SDS011;63518;49.572;1.106;2023-08-31T06:50:12;5.97;;;1.27;;
74959;SDS011;63518;49.572;1.106;2023-08-31T06:52:39;3.58;;;1.05;;
74959;SDS011;63518;49.572;1.106;2023-08-31T06:55:10;8.05;;;1.38;;
74959;SDS011;63518;49.572;1.106;2023-08-31T06:57:37;7.78;;;1.45;;
74959;SDS011;63518;49.572;1.106;2023-08-31T07:00:05;4.35;;;0.98;;
74959;SDS011;63518;49.572;1.106;2023-08-31T07:02:36;5.55;;;1.20;;
74959;SDS011;63518;49.572;1.106;2023-08-31T07:05:05;8.77;;;1.42;;
74959;SDS011;63518;49.572;1.106;2023-08-31T07:07:33;3.72;;;1.08;;
74959;SDS011;63518;49.572;1.106;2023-08-31T07:10:00;5.82;;;1.40;;
74959;SDS011;63518;49.572;1.106;2023-08-31T07:12:27;4.38;;;1.10;;
74959;SDS011;63518;49.572;1.106;2023-08-31T07:14:53;3.95;;;1.00;;
74959;SDS011;63518;49.572;1.106;2023-08-31T07:17:20;4.50;;;1.20;;
74959;SDS011;63518;49.572;1.106;2023-08-31T07:19:47;6.63;;;1.30;;
74959;SDS011;63518;49.572;1.106;2023-08-31T07:22:14;5.13;;;1.23;;
74959;SDS011;63518;49.572;1.106;2023-08-31T07:24:41;8.10;;;1.10;;
74959;SDS011;63518;49.572;1.106;2023-08-31T07:27:08;5.35;;;1.70;;
74959;SDS011;63518;49.572;1.106;2023-08-31T07:29:35;5.57;;;1.10;;
74959;SDS011;63518;49.572;1.106;2023-08-31T07:32:01;5.28;;;1.17;;
74959;SDS011;63518;49.572;1.106;2023-08-31T07:34:29;4.20;;;1.33;;
74959;SDS011;63518;49.572;1.106;2023-08-31T07:36:58;5.10;;;1.10;;
74959;SDS011;63518;49.572;1.106;2023-08-31T07:39:25;8.32;;;1.23;;
74959;SDS011;63518;49.572;1.106;2023-08-31T07:41:53;5.85;;;1.45;;
74959;SDS011;63518;49.572;1.106;2023-08-31T07:44:21;7.13;;;1.30;;
74959;SDS011;63518;49.572;1.106;2023-08-31T07:46:48;5.00;;;1.42;;
74959;SDS011;63518;49.572;1.106;2023-08-31T07:49:15;6.22;;;1.67;;
74959;SDS011;63518;49.572;1.106;2023-08-31T07:51:42;5.47;;;1.13;;
74959;SDS011;63518;49.572;1.106;2023-08-31T07:54:08;4.28;;;1.13;;
74959;SDS011;63518;49.572;1.106;2023-08-31T07:56:35;5.07;;;1.42;;
74959;SDS011;63518;49.572;1.106;2023-08-31T07:59:02;4.60;;;1.15;;
74959;SDS011;63518;49.572;1.106;2023-08-31T08:01:29;7.10;;;1.40;;
74959;SDS011;63518;49.572;1.106;2023-08-31T08:03:56;9.10;;;1.23;;
74959;SDS011;63518;49.572;1.106;2023-08-31T08:06:23;4.82;;;1.17;;
74959;SDS011;63518;49.572;1.106;2023-08-31T08:08:50;7.22;;;1.30;;
74959;SDS011;63518;49.572;1.106;2023-08-31T08:11:17;7.63;;;1.55;;
74959;SDS011;63518;49.572;1.106;2023-08-31T08:13:44;7.82;;;2.10;;
74959;SDS011;63518;49.572;1.106;2023-08-31T08:16:10;21.75;;;6.07;;
74959;SDS011;63518;49.572;1.106;2023-08-31T08:18:37;16.77;;;5.47;;
74959;SDS011;63518;49.572;1.106;2023-08-31T08:21:04;10.65;;;3.08;;
74959;SDS011;63518;49.572;1.106;2023-08-31T08:23:31;7.43;;;2.25;;
74959;SDS011;63518;49.572;1.106;2023-08-31T08:25:58;5.40;;;1.55;;
74959;SDS011;63518;49.572;1.106;2023-08-31T08:28:28;11.18;;;3.75;;
74959;SDS011;63518;49.572;1.106;2023-08-31T08:30:55;7.60;;;1.80;;
74959;SDS011;63518;49.572;1.106;2023-08-31T08:33:22;9.05;;;3.33;;
74959;SDS011;63518;49.572;1.106;2023-08-31T08:35:49;9.32;;;2.50;;
74959;SDS011;63518;49.572;1.106;2023-08-31T08:38:16;9.40;;;1.85;;
74959;SDS011;63518;49.572;1.106;2023-08-31T08:40:42;5.65;;;1.40;;
74959;SDS011;63518;49.572;1.106;2023-08-31T08:43:09;4.60;;;1.20;;
74959;SDS011;63518;49.572;1.106;2023-08-31T08:45:38;5.32;;;1.45;;
74959;SDS011;63518;49.572;1.106;2023-08-31T08:48:08;6.55;;;1.25;;
74959;SDS011;63518;49.572;1.106;2023-08-31T08:50:36;6.95;;;1.48;;
74959;SDS011;63518;49.572;1.106;2023-08-31T08:53:04;5.75;;;1.30;;
74959;SDS011;63518;49.572;1.106;2023-08-31T08:55:32;8.00;;;1.42;;
74959;SDS011;63518;49.572;1.106;2023-08-31T08:57:59;8.00;;;1.20;;
74959;SDS011;63518;49.572;1.106;2023-08-31T09:00:27;8.80;;;1.70;;
74959;SDS011;63518;49.572;1.106;2023-08-31T09:05:24;8.05;;;1.48;;
74959;SDS011;63518;49.572;1.106;2023-08-31T09:08:05;6.68;;;1.92;;
74959;SDS011;63518;49.572;1.106;2023-08-31T09:10:42;4.13;;;1.23;;
74959;SDS011;63518;49.572;1.106;2023-08-31T09:16:22;7.93;;;1.40;;
74959;SDS011;63518;49.572;1.106;2023-08-31T09:18:51;7.20;;;1.67;;
74959;SDS011;63518;49.572;1.106;2023-08-31T09:21:20;3.95;;;1.10;;
74959;SDS011;63518;49.572;1.106;2023-08-31T09:23:57;7.75;;;1.55;;
74959;SDS011;63518;49.572;1.106;2023-08-31T09:28:51;8.65;;;1.40;;
74959;SDS011;63518;49.572;1.106;2023-08-31T09:31:18;4.45;;;1.17;;
74959;SDS011;63518;49.572;1.106;2023-08-31T09:33:52;5.50;;;1.52;;
74959;SDS011;63518;49.572;1.106;2023-08-31T09:36:22;7.15;;;1.30;;
74959;SDS011;63518;49.572;1.106;2023-08-31T09:38:49;6.43;;;1.92;;
74959;SDS011;63518;49.572;1.106;2023-08-31T09:41:16;8.90;;;2.05;;
74959;SDS011;63518;49.572;1.106;2023-08-31T09:44:14;8.63;;;1.58;;
74959;SDS011;63518;49.572;1.106;2023-08-31T09:46:43;8.27;;;1.65;;
74959;SDS011;63518;49.572;1.106;2023-08-31T09:49:14;9.18;;;2.13;;
74959;SDS011;63518;49.572;1.106;2023-08-31T09:51:45;7.65;;;1.98;;
74959;SDS011;63518;49.572;1.106;2023-08-31T09:54:14;12.27;;;2.90;;
74959;SDS011;63518;49.572;1.106;2023-08-31T09:56:44;8.40;;;2.45;;
74959;SDS011;63518;49.572;1.106;2023-08-31T09:59:13;11.73;;;2.60;;
74959;SDS011;63518;49.572;1.106;2023-08-31T10:01:42;8.25;;;2.47;;
74959;SDS011;63518;49.572;1.106;2023-08-31T10:04:11;9.73;;;2.65;;
74959;SDS011;63518;49.572;1.106;2023-08-31T10:06:39;7.68;;;2.60;;
74959;SDS011;63518;49.572;1.106;2023-08-31T10:09:07;10.55;;;2.60;;
74959;SDS011;63518;49.572;1.106;2023-08-31T10:11:38;8.65;;;2.28;;
74959;SDS011;63518;49.572;1.106;2023-08-31T10:14:06;6.88;;;2.25;;
74959;SDS011;63518;49.572;1.106;2023-08-31T10:16:35;7.95;;;2.28;;
74959;SDS011;63518;49.572;1.106;2023-08-31T10:19:06;9.10;;;2.38;;
74959;SDS011;63518;49.572;1.106;2023-08-31T10:21:33;6.65;;;1.88;;
74959;SDS011;63518;49.572;1.106;2023-08-31T10:24:00;7.60;;;1.83;;
74959;SDS011;63518;49.572;1.106;2023-08-31T10:26:28;5.43;;;1.40;;
74959;SDS011;63518;49.572;1.106;2023-08-31T10:28:56;7.43;;;1.70;;
74959;SDS011;63518;49.572;1.106;2023-08-31T10:31:29;8.27;;;1.77;;
74959;SDS011;63518;49.572;1.106;2023-08-31T10:33:58;5.22;;;1.85;;
74959;SDS011;63518;49.572;1.106;2023-08-31T10:36:41;7.82;;;1.92;;
74959;SDS011;63518;49.572;1.106;2023-08-31T10:39:12;6.40;;;1.73;;
74959;SDS011;63518;49.572;1.106;2023-08-31T10:41:39;6.13;;;1.95;;
74959;SDS011;63518;49.572;1.106;2023-08-31T10:44:20;6.20;;;1.40;;
74959;SDS011;63518;49.572;1.106;2023-08-31T10:46:51;6.22;;;1.38;;
74959;SDS011;63518;49.572;1.106;2023-08-31T10:49:19;6.72;;;1.58;;
74959;SDS011;63518;49.572;1.106;2023-08-31T10:51:48;6.85;;;1.65;;
74959;SDS011;63518;49.572;1.106;2023-08-31T10:59:21;5.93;;;1.60;;
74959;SDS011;63518;49.572;1.106;2023-08-31T11:01:59;9.48;;;2.05;;
74959;SDS011;63518;49.572;1.106;2023-08-31T11:04:29;7.65;;;1.33;;
74959;SDS011;63518;49.572;1.106;2023-08-31T11:09:44;4.53;;;2.03;;
74959;SDS011;63518;49.572;1.106;2023-08-31T11:12:12;6.63;;;1.77;;
74959;SDS011;63518;49.572;1.106;2023-08-31T11:14:40;9.02;;;1.50;;
74959;SDS011;63518;49.572;1.106;2023-08-31T11:17:07;5.97;;;1.52;;
74959;SDS011;63518;49.572;1.106;2023-08-31T11:19:35;7.30;;;1.40;;
74959;SDS011;63518;49.572;1.106;2023-08-31T11:22:03;5.28;;;1.45;;
74959;SDS011;63518;49.572;1.106;2023-08-31T11:24:31;6.65;;;1.30;;
74959;SDS011;63518;49.572;1.106;2023-08-31T11:26:59;6.95;;;1.55;;
74959;SDS011;63518;49.572;1.106;2023-08-31T11:29:26;7.40;;;1.98;;
74959;SDS011;63518;49.572;1.106;2023-08-31T11:31:55;4.18;;;1.10;;
74959;SDS011;63518;49.572;1.106;2023-08-31T11:34:24;6.05;;;1.30;;
74959;SDS011;63518;49.572;1.106;2023-08-31T11:36:50;6.28;;;1.42;;
74959;SDS011;63518;49.572;1.106;2023-08-31T11:39:17;5.85;;;1.30;;
74959;SDS011;63518;49.572;1.106;2023-08-31T11:41:45;5.75;;;1.70;;
74959;SDS011;63518;49.572;1.106;2023-08-31T11:44:13;6.22;;;1.20;;
74959;SDS011;63518;49.572;1.106;2023-08-31T11:46:45;3.92;;;1.20;;
74959;SDS011;63518;49.572;1.106;2023-08-31T11:49:14;4.43;;;1.20;;
74959;SDS011;63518;49.572;1.106;2023-08-31T11:51:42;4.85;;;1.23;;
74959;SDS011;63518;49.572;1.106;2023-08-31T11:54:10;4.45;;;1.00;;
74959;SDS011;63518;49.572;1.106;2023-08-31T11:56:42;5.20;;;1.40;;
74959;SDS011;63518;49.572;1.106;2023-08-31T11:59:10;5.75;;;1.27;;
74959;SDS011;63518;49.572;1.106;2023-08-31T12:01:40;4.90;;;1.08;;
74959;SDS011;63518;49.572;1.106;2023-08-31T12:04:21;5.35;;;1.10;;
74959;SDS011;63518;49.572;1.106;2023-08-31T12:06:49;5.43;;;1.23;;
74959;SDS011;63518;49.572;1.106;2023-08-31T12:09:17;5.05;;;1.10;;
74959;SDS011;63518;49.572;1.106;2023-08-31T12:11:51;3.58;;;0.90;;
74959;SDS011;63518;49.572;1.106;2023-08-31T12:14:24;4.68;;;1.33;;
74959;SDS011;63518;49.572;1.106;2023-08-31T12:16:53;3.45;;;0.93;;
74959;SDS011;63518;49.572;1.106;2023-08-31T12:19:27;5.05;;;1.00;;
74959;SDS011;63518;49.572;1.106;2023-08-31T12:21:57;4.28;;;1.10;;
74959;SDS011;63518;49.572;1.106;2023-08-31T12:24:24;4.32;;;1.20;;
74959;SDS011;63518;49.572;1.106;2023-08-31T12:26:52;4.85;;;1.15;;
74959;SDS011;63518;49.572;1.106;2023-08-31T12:29:22;8.13;;;1.58;;
74959;SDS011;63518;49.572;1.106;2023-08-31T12:31:49;3.55;;;0.77;;
74959;SDS011;63518;49.572;1.106;2023-08-31T12:34:17;4.95;;;1.35;;
74959;SDS011;63518;49.572;1.106;2023-08-31T12:36:44;3.72;;;1.00;;
74959;SDS011;63518;49.572;1.106;2023-08-31T12:39:10;5.85;;;1.60;;
74959;SDS011;63518;49.572;1.106;2023-08-31T12:41:41;3.63;;;1.10;;
74959;SDS011;63518;49.572;1.106;2023-08-31T12:44:08;6.00;;;1.00;;
74959;SDS011;63518;49.572;1.106;2023-08-31T12:46:35;6.05;;;1.20;;
74959;SDS011;63518;49.572;1.106;2023-08-31T12:49:02;5.18;;;1.58;;
74959;SDS011;63518;49.572;1.106;2023-08-31T12:51:30;6.30;;;1.45;;
74959;SDS011;63518;49.572;1.106;2023-08-31T12:53:57;5.95;;;1.42;;
74959;SDS011;63518;49.572;1.106;2023-08-31T12:56:24;4.93;;;1.58;;
74959;SDS011;63518;49.572;1.106;2023-08-31T12:58:52;4.40;;;1.65;;
74959;SDS011;63518;49.572;1.106;2023-08-31T13:01:20;5.38;;;1.35;;
74959;SDS011;63518;49.572;1.106;2023-08-31T13:03:49;3.83;;;1.00;;
74959;SDS011;63518;49.572;1.106;2023-08-31T13:06:16;5.28;;;1.58;;
74959;SDS011;63518;49.572;1.106;2023-08-31T13:08:43;3.55;;;1.10;;
74959;SDS011;63518;49.572;1.106;2023-08-31T13:11:11;5.22;;;1.33;;
74959;SDS011;63518;49.572;1.106;2023-08-31T13:13:41;6.97;;;1.00;;
74959;SDS011;63518;49.572;1.106;2023-08-31T13:16:08;2.70;;;0.70;;
74959;SDS011;63518;49.572;1.106;2023-08-31T13:18:35;5.80;;;1.17;;
74959;SDS011;63518;49.572;1.106;2023-08-31T13:21:02;4.45;;;1.00;;
74959;SDS011;63518;49.572;1.106;2023-08-31T13:23:29;3.10;;;0.98;;
74959;SDS011;63518;49.572;1.106;2023-08-31T13:25:56;3.90;;;0.98;;
74959;SDS011;63518;49.572;1.106;2023-08-31T13:28:23;3.83;;;1.08;;
74959;SDS011;63518;49.572;1.106;2023-08-31T13:30:50;3.13;;;0.90;;
74959;SDS011;63518;49.572;1.106;2023-08-31T13:33:22;4.93;;;1.25;;
74959;SDS011;63518;49.572;1.106;2023-08-31T13:35:49;5.85;;;1.20;;
74959;SDS011;63518;49.572;1.106;2023-08-31T13:38:16;3.75;;;1.13;;
74959;SDS011;63518;49.572;1.106;2023-08-31T13:40:43;4.30;;;1.40;;
74959;SDS011;63518;49.572;1.106;2023-08-31T13:43:10;4.20;;;1.40;;
74959;SDS011;63518;49.572;1.106;2023-08-31T13:45:37;5.00;;;1.38;;
74959;SDS011;63518;49.572;1.106;2023-08-31T13:48:04;4.20;;;1.52;;
74959;SDS011;63518;49.572;1.106;2023-08-31T13:50:31;4.40;;;1.42;;
74959;SDS011;63518;49.572;1.106;2023-08-31T13:52:58;7.57;;;1.40;;
74959;SDS011;63518;49.572;1.106;2023-08-31T13:55:25;5.75;;;1.45;;
74959;SDS011;63518;49.572;1.106;2023-08-31T13:57:53;5.70;;;1.40;;
74959;SDS011;63518;49.572;1.106;2023-08-31T14:00:19;4.32;;;1.45;;
74959;SDS011;63518;49.572;1.106;2023-08-31T14:02:46;4.80;;;1.33;;
74959;SDS011;63518;49.572;1.106;2023-08-31T14:05:13;4.00;;;1.20;;
74959;SDS011;63518;49.572;1.106;2023-08-31T14:07:41;4.30;;;1.30;;
74959;SDS011;63518;49.572;1.106;2023-08-31T14:10:08;4.43;;;1.50;;
74959;SDS011;63518;49.572;1.106;2023-08-31T14:12:35;2.67;;;0.80;;
74959;SDS011;63518;49.572;1.106;2023-08-31T14:15:02;6.70;;;1.52;;
74959;SDS011;63518;49.572;1.106;2023-08-31T14:17:30;8.25;;;1.60;;
74959;SDS011;63518;49.572;1.106;2023-08-31T14:19:59;4.25;;;1.38;;
74959;SDS011;63518;49.572;1.106;2023-08-31T14:22:27;4.50;;;1.30;;
74959;SDS011;63518;49.572;1.106;2023-08-31T14:24:55;5.57;;;1.60;;
74959;SDS011;63518;49.572;1.106;2023-08-31T14:27:22;5.70;;;1.48;;
74959;SDS011;63518;49.572;1.106;2023-08-31T14:29:49;3.40;;;1.00;;
74959;SDS011;63518;49.572;1.106;2023-08-31T14:32:16;3.80;;;1.13;;
74959;SDS011;63518;49.572;1.106;2023-08-31T14:34:43;3.20;;;0.80;;
74959;SDS011;63518;49.572;1.106;2023-08-31T14:37:10;1.30;;;0.40;;
74959;SDS011;63518;49.572;1.106;2023-08-31T14:39:37;2.55;;;0.80;;
74959;SDS011;63518;49.572;1.106;2023-08-31T14:42:04;2.90;;;0.73;;
74959;SDS011;63518;49.572;1.106;2023-08-31T14:44:30;3.25;;;0.95;;
74959;SDS011;63518;49.572;1.106;2023-08-31T14:46:57;3.17;;;0.90;;
74959;SDS011;63518;49.572;1.106;2023-08-31T14:49:24;3.40;;;0.90;;
74959;SDS011;63518;49.572;1.106;2023-08-31T14:51:54;3.53;;;0.95;;
74959;SDS011;63518;49.572;1.106;2023-08-31T14:54:21;3.00;;;0.75;;
74959;SDS011;63518;49.572;1.106;2023-08-31T14:56:49;2.78;;;0.73;;
74959;SDS011;63518;49.572;1.106;2023-08-31T14:59:16;3.03;;;0.90;;
74959;SDS011;63518;49.572;1.106;2023-08-31T15:01:43;3.42;;;0.82;;
74959;SDS011;63518;49.572;1.106;2023-08-31T15:04:09;5.85;;;1.15;;
74959;SDS011;63518;49.572;1.106;2023-08-31T15:06:36;3.90;;;1.00;;
74959;SDS011;63518;49.572;1.106;2023-08-31T15:09:03;3.85;;;1.20;;
74959;SDS011;63518;49.572;1.106;2023-08-31T15:11:31;3.65;;;1.13;;
74959;SDS011;63518;49.572;1.106;2023-08-31T15:13:57;4.10;;;0.93;;
74959;SDS011;63518;49.572;1.106;2023-08-31T15:16:25;3.80;;;0.90;;
74959;SDS011;63518;49.572;1.106;2023-08-31T15:18:52;3.58;;;1.00;;
74959;SDS011;63518;49.572;1.106;2023-08-31T15:21:19;3.97;;;1.15;;
74959;SDS011;63518;49.572;1.106;2023-08-31T15:23:46;4.45;;;1.23;;